Time;durP1;ratioP1;P1;durP2;ratioP2;P2;SDS_P1;SDS_P2;PMS_P1;PMS_P2;Temp;Humidity;BMP_temperature;BMP_pressure;BME280_temperature;BME280_humidity;BME280_pressure;Samples;Min_cycle;Max_cycle;Signal;HPM_P1;HPM_P2
2023/09/29 00:01:27;;;;;;;6.13;3.53;;;;;;;17.00;100.00;98334.34;5134715;27;20198;-72
2023/09/29 00:03:54;;;;;;;4.70;3.40;;;;;;;17.03;100.00;98337.34;5134727;27;20218;-72
2023/09/29 00:06:20;;;;;;;6.40;3.50;;;;;;;16.81;100.00;98347.31;5134437;27;20293;-72
2023/09/29 00:08:46;;;;;;;5.33;3.67;;;;;;;16.83;100.00;98334.44;5134659;27;20223;-72
2023/09/29 00:11:14;;;;;;;4.70;3.40;;;;;;;16.71;100.00;98325.72;5134734;27;20199;-72
2023/09/29 00:13:40;;;;;;;7.17;3.43;;;;;;;16.76;100.00;98330.31;5134662;27;20209;-72
2023/09/29 00:16:07;;;;;;;5.03;3.73;;;;;;;16.61;100.00;98317.53;5134463;27;20198;-72
2023/09/29 00:18:33;;;;;;;3.60;3.30;;;;;;;16.65;100.00;98324.00;5134551;27;20218;-72
2023/09/29 00:21:00;;;;;;;5.37;3.37;;;;;;;16.66;100.00;98322.97;5134567;27;20202;-72
2023/09/29 00:23:26;;;;;;;5.37;3.23;;;;;;;16.72;100.00;98326.50;5134483;27;20309;-72
2023/09/29 00:25:53;;;;;;;3.47;3.17;;;;;;;16.83;100.00;98310.25;5134218;28;20669;-72
2023/09/29 00:28:19;;;;;;;6.87;3.43;;;;;;;16.75;100.00;98318.78;5134524;28;20229;-72
2023/09/29 00:30:46;;;;;;;4.33;2.93;;;;;;;16.71;100.00;98331.09;5134296;28;20202;-72
2023/09/29 00:33:12;;;;;;;5.00;3.50;;;;;;;16.63;100.00;98334.22;5134511;28;20229;-72
2023/09/29 00:35:38;;;;;;;4.03;2.97;;;;;;;16.70;100.00;98331.34;5134433;28;20202;-72
2023/09/29 00:38:05;;;;;;;4.07;3.30;;;;;;;16.61;100.00;98330.16;5134072;28;20731;-72
2023/09/29 00:40:31;;;;;;;3.80;3.40;;;;;;;16.49;100.00;98327.59;5134058;28;20606;-73
2023/09/29 00:42:58;;;;;;;4.40;3.23;;;;;;;16.56;100.00;98333.56;5134063;28;20696;-72
2023/09/29 00:45:26;;;;;;;5.50;3.47;;;;;;;16.50;100.00;98333.75;5134396;28;20205;-72
2023/09/29 00:47:59;;;;;;;6.47;2.83;;;;;;;16.34;100.00;98330.06;5134172;28;20237;-72
2023/09/29 00:50:28;;;;;;;3.63;3.10;;;;;;;16.51;100.00;98330.03;5133812;28;20211;-72
2023/09/29 00:52:58;;;;;;;4.33;3.10;;;;;;;16.43;100.00;98338.53;5133985;28;20203;-72
2023/09/29 00:55:27;;;;;;;4.17;3.13;;;;;;;16.42;100.00;98324.28;5134362;28;20259;-72
2023/09/29 00:58:00;;;;;;;6.90;3.20;;;;;;;16.44;100.00;98334.75;5134044;28;20253;-72
2023/09/29 01:00:32;;;;;;;4.20;3.00;;;;;;;16.51;100.00;98330.84;5134300;28;20191;-72
2023/09/29 01:03:04;;;;;;;6.87;2.83;;;;;;;16.43;100.00;98327.78;5134144;28;20203;-72
2023/09/29 01:05:31;;;;;;;5.43;2.77;;;;;;;16.44;100.00;98326.72;5134171;28;20220;-72
2023/09/29 01:07:57;;;;;;;4.53;3.30;;;;;;;16.46;100.00;98322.72;5134209;28;20675;-72
2023/09/29 01:10:24;;;;;;;5.77;3.13;;;;;;;16.44;100.00;98326.72;5133787;28;20661;-72
2023/09/29 01:12:51;;;;;;;6.27;3.50;;;;;;;16.40;100.00;98326.41;5134796;27;20207;-72
2023/09/29 01:15:19;;;;;;;4.00;3.03;;;;;;;16.33;100.00;98333.78;5137750;27;20572;-72
2023/09/29 01:17:46;;;;;;;3.47;3.17;;;;;;;16.30;100.00;98334.31;5137909;27;20287;-72
2023/09/29 01:20:27;;;;;;;5.63;3.40;;;;;;;16.25;100.00;98325.38;5137941;27;20602;-72
2023/09/29 01:22:54;;;;;;;5.03;3.03;;;;;;;16.33;100.00;98323.06;5137858;27;20214;-72
2023/09/29 01:25:21;;;;;;;5.53;3.07;;;;;;;16.31;100.00;98324.38;5137353;27;20768;-72
2023/09/29 01:27:48;;;;;;;3.47;3.03;;;;;;;16.32;100.00;98331.34;5137024;27;20709;-72
2023/09/29 01:30:18;;;;;;;3.07;2.73;;;;;;;16.30;100.00;98342.34;5137182;27;20199;-72
2023/09/29 01:32:46;;;;;;;4.50;3.27;;;;;;;16.27;100.00;98326.75;5136938;27;20356;-72
2023/09/29 01:35:15;;;;;;;5.50;3.20;;;;;;;16.26;100.00;98327.81;5136997;27;20576;-72
2023/09/29 01:37:42;;;;;;;4.23;2.80;;;;;;;16.21;100.00;98322.38;5137224;27;20222;-72
2023/09/29 01:40:10;;;;;;;3.33;2.90;;;;;;;16.20;100.00;98322.63;5137204;27;20209;-72
2023/09/29 01:42:37;;;;;;;4.40;2.97;;;;;;;16.16;100.00;98319.63;5137154;27;20299;-72
2023/09/29 01:45:04;;;;;;;4.47;2.93;;;;;;;16.11;100.00;98322.22;5136802;27;20661;-72
2023/09/29 01:47:31;;;;;;;4.33;2.97;;;;;;;16.12;100.00;98318.50;5137095;27;20280;-72
2023/09/29 01:49:57;;;;;;;6.07;2.73;;;;;;;16.06;100.00;98316.78;5136969;27;20202;-72
2023/09/29 01:52:24;;;;;;;5.37;3.13;;;;;;;16.02;100.00;98321.00;5136803;27;20665;-72
2023/09/29 01:54:50;;;;;;;5.20;3.17;;;;;;;15.99;100.00;98316.16;5136898;27;20684;-72
2023/09/29 01:57:16;;;;;;;5.27;3.10;;;;;;;15.97;100.00;98312.91;5137114;27;20248;-72
2023/09/29 01:59:43;;;;;;;2.97;2.67;;;;;;;15.96;100.00;98319.31;5137204;27;20207;-72
2023/09/29 02:02:09;;;;;;;4.97;3.00;;;;;;;15.92;100.00;98318.19;5137150;27;20208;-72
2023/09/29 02:04:35;;;;;;;4.13;2.70;;;;;;;15.86;100.00;98311.16;5137038;27;20222;-72
2023/09/29 02:07:02;;;;;;;7.93;3.27;;;;;;;15.88;100.00;98317.06;5136634;27;20203;-72
2023/09/29 02:09:29;;;;;;;3.13;2.57;;;;;;;15.79;100.00;98318.53;5136503;27;20203;-72
2023/09/29 02:11:55;;;;;;;4.23;2.90;;;;;;;15.86;100.00;98313.81;5136939;27;20207;-72
2023/09/29 02:14:22;;;;;;;5.40;3.00;;;;;;;15.82;100.00;98317.22;5136502;27;20662;-72
2023/09/29 02:16:49;;;;;;;4.70;2.90;;;;;;;15.79;100.00;98307.81;5136664;27;20205;-72
2023/09/29 02:19:16;;;;;;;6.03;2.80;;;;;;;15.84;100.00;98310.56;5136306;27;20709;-72
2023/09/29 02:21:46;;;;;;;5.60;2.83;;;;;;;15.81;100.00;98307.56;5136450;27;20248;-72
2023/09/29 02:24:13;;;;;;;5.33;2.83;;;;;;;15.88;100.00;98311.69;5136071;27;20271;-72
2023/09/29 02:26:39;;;;;;;4.50;3.10;;;;;;;15.85;100.00;98303.34;5136306;27;20691;-72
2023/09/29 02:29:10;;;;;;;4.53;2.77;;;;;;;15.79;100.00;98307.81;5136849;27;20627;-72
2023/09/29 02:31:36;;;;;;;3.70;2.50;;;;;;;15.78;100.00;98308.88;5136187;27;20562;-72
2023/09/29 02:34:04;;;;;;;2.70;2.47;;;;;;;15.80;100.00;98311.31;5136541;27;20203;-72
2023/09/29 02:36:30;;;;;;;4.53;3.00;;;;;;;15.78;100.00;98308.09;5136329;27;20563;-72
2023/09/29 02:38:57;;;;;;;3.30;2.87;;;;;;;15.77;100.00;98301.91;5136600;27;20222;-72
2023/09/29 02:41:23;;;;;;;4.73;3.23;;;;;;;15.77;100.00;98301.91;5137078;27;20230;-72
2023/09/29 02:43:49;;;;;;;4.37;2.80;;;;;;;15.76;100.00;98305.63;5136494;27;20592;-72
2023/09/29 02:46:16;;;;;;;4.07;2.87;;;;;;;15.76;100.00;98307.50;5136797;27;20680;-72
2023/09/29 02:48:43;;;;;;;3.10;2.50;;;;;;;15.86;100.00;98307.63;5137489;27;20222;-72
2023/09/29 02:51:17;;;;;;;3.43;2.87;;;;;;;15.78;100.00;98305.41;5137079;27;20213;-72
2023/09/29 02:53:44;;;;;;;5.97;2.93;;;;;;;15.76;100.00;98302.97;5136956;27;20210;-72
2023/09/29 02:56:11;;;;;;;5.07;2.60;;;;;;;15.74;100.00;98307.75;5137100;27;20621;-72
2023/09/29 02:58:40;;;;;;;4.10;2.70;;;;;;;15.73;100.00;98307.97;5136235;27;20222;-72
2023/09/29 03:01:11;;;;;;;3.53;2.77;;;;;;;15.70;100.00;98306.59;5135907;27;20680;-72
2023/09/29 03:03:43;;;;;;;5.87;2.87;;;;;;;15.74;100.00;98302.38;5135467;27;20229;-72
2023/09/29 03:06:12;;;;;;;4.67;2.93;;;;;;;15.66;100.00;98304.66;5135514;27;20706;-72
2023/09/29 03:08:38;;;;;;;3.07;2.73;;;;;;;15.64;100.00;98306.75;5135594;27;20265;-72
2023/09/29 03:11:09;;;;;;;3.63;3.00;;;;;;;15.64;100.00;98306.75;5135548;27;20206;-72
2023/09/29 03:13:37;;;;;;;4.07;2.60;;;;;;;15.60;100.00;98303.78;5135668;27;20193;-72
2023/09/29 03:16:04;;;;;;;4.80;3.07;;;;;;;15.63;100.00;98305.97;5135281;27;20206;-72
2023/09/29 03:18:30;;;;;;;3.57;2.77;;;;;;;15.57;100.00;98301.59;5135181;27;20584;-72
2023/09/29 03:20:58;;;;;;;4.37;3.17;;;;;;;15.59;100.00;98302.16;5135210;27;20210;-72
2023/09/29 03:23:24;;;;;;;4.53;3.03;;;;;;;15.45;100.00;98303.53;5135295;27;20283;-72
2023/09/29 03:25:50;;;;;;;3.00;2.50;;;;;;;15.40;100.00;98295.44;5135416;27;20206;-72
2023/09/29 03:28:17;;;;;;;3.87;2.90;;;;;;;15.32;100.00;98286.94;5134863;27;20724;-72
2023/09/29 03:30:44;;;;;;;4.97;3.20;;;;;;;15.37;100.00;98292.44;5135191;27;20259;-72
2023/09/29 03:33:11;;;;;;;4.00;2.73;;;;;;;15.35;100.00;98290.00;5135157;27;20540;-72
2023/09/29 03:35:37;;;;;;;4.17;2.90;;;;;;;15.11;100.00;98303.72;5134379;27;20722;-72
2023/09/29 03:38:05;;;;;;;3.70;2.97;;;;;;;15.05;100.00;98305.50;5134543;27;20222;-72
2023/09/29 03:40:31;;;;;;;4.50;3.10;;;;;;;15.09;100.00;98303.97;5134785;27;20210;-72
2023/09/29 03:42:58;;;;;;;4.33;2.90;;;;;;;15.13;100.00;98298.94;5135023;27;20206;-72
2023/09/29 03:45:25;;;;;;;4.00;2.83;;;;;;;15.15;100.00;98304.88;5134812;27;20288;-72
2023/09/29 03:47:51;;;;;;;3.83;3.10;;;;;;;15.03;100.00;98306.78;5134765;27;20258;-72
2023/09/29 03:50:18;;;;;;;4.03;3.10;;;;;;;15.05;100.00;98310.84;5134885;27;20202;-72
2023/09/29 03:52:46;;;;;;;5.37;2.80;;;;;;;15.14;100.00;98306.72;5134915;27;20253;-72
2023/09/29 03:55:14;;;;;;;4.70;3.23;;;;;;;15.11;100.00;98301.06;5134854;27;20213;-72
2023/09/29 03:57:42;;;;;;;6.07;3.37;;;;;;;15.17;100.00;98295.53;5135207;27;20225;-72
2023/09/29 04:00:11;;;;;;;3.53;2.90;;;;;;;15.14;100.00;98308.59;5134580;27;20285;-72
2023/09/29 04:02:40;;;;;;;4.00;2.93;;;;;;;15.12;100.00;98310.72;5134572;27;20289;-72
2023/09/29 04:05:06;;;;;;;3.83;2.90;;;;;;;15.13;100.00;98313.16;5134465;27;20218;-72
2023/09/29 04:07:36;;;;;;;5.40;2.83;;;;;;;15.14;100.00;98322.81;5134498;27;20310;-72
2023/09/29 04:10:05;;;;;;;5.27;3.10;;;;;;;15.20;100.00;98321.81;5134408;27;20198;-72
2023/09/29 04:12:31;;;;;;;4.50;3.03;;;;;;;15.18;100.00;98317.75;5134498;27;20230;-72
2023/09/29 04:14:58;;;;;;;5.47;3.17;;;;;;;15.17;100.00;98325.00;5134148;27;20560;-72
2023/09/29 04:17:24;;;;;;;6.10;3.30;;;;;;;15.21;100.00;98317.28;5133927;27;20731;-73
2023/09/29 04:19:50;;;;;;;3.43;3.00;;;;;;;15.23;100.00;98318.69;5134467;27;20202;-72
2023/09/29 04:22:17;;;;;;;7.87;3.50;;;;;;;15.31;100.00;98315.59;5134339;27;20213;-72
2023/09/29 04:24:43;;;;;;;3.93;3.10;;;;;;;15.35;100.00;98324.00;5134376;27;20219;-72
2023/09/29 04:27:09;;;;;;;5.10;3.07;;;;;;;15.38;100.00;98329.66;5134367;28;20199;-72
2023/09/29 04:29:36;;;;;;;3.40;2.90;;;;;;;15.45;100.00;98326.84;5134384;28;20202;-72
2023/09/29 04:32:02;;;;;;;5.43;3.30;;;;;;;15.51;100.00;98320.53;5134037;28;20214;-72
2023/09/29 04:34:28;;;;;;;5.93;3.77;;;;;;;15.54;100.00;98333.41;5134186;28;20195;-73
2023/09/29 04:36:55;;;;;;;4.47;3.03;;;;;;;15.54;100.00;98346.81;5134102;28;20203;-73
2023/09/29 04:39:21;;;;;;;4.13;3.27;;;;;;;15.37;100.00;98346.81;5134198;28;20222;-73
2023/09/29 04:41:48;;;;;;;4.27;3.20;;;;;;;15.41;100.00;98345.28;5133516;28;20209;-72
2023/09/29 04:44:14;;;;;;;3.03;2.63;;;;;;;15.47;100.00;98348.84;5133993;28;20236;-72
2023/09/29 04:46:42;;;;;;;4.20;3.00;;;;;;;15.49;100.00;98347.56;5133721;27;20629;-72
2023/09/29 04:49:08;;;;;;;5.53;3.53;;;;;;;15.40;100.00;98350.88;5137102;27;20283;-73
2023/09/29 04:51:36;;;;;;;4.93;3.20;;;;;;;15.48;100.00;98353.97;5138441;27;20246;-73
2023/09/29 04:54:03;;;;;;;3.77;2.80;;;;;;;15.53;100.00;98346.03;5138318;27;20326;-73
2023/09/29 04:56:29;;;;;;;6.10;3.63;;;;;;;15.51;100.00;98340.06;5138224;27;20202;-73
2023/09/29 04:58:56;;;;;;;5.07;3.50;;;;;;;15.50;100.00;98329.59;5137493;27;20226;-73
2023/09/29 05:01:23;;;;;;;4.73;3.50;;;;;;;15.52;100.00;98330.97;5137861;27;20228;-73
2023/09/29 05:03:50;;;;;;;4.60;3.23;;;;;;;15.55;100.00;98333.19;5137771;27;20224;-72
2023/09/29 05:06:17;;;;;;;6.47;3.80;;;;;;;15.42;100.00;98335.38;5137706;27;20203;-73
2023/09/29 05:08:45;;;;;;;3.97;3.20;;;;;;;15.51;100.00;98340.06;5137374;27;20232;-73
2023/09/29 05:11:22;;;;;;;4.90;3.17;;;;;;;15.47;100.00;98335.47;5137627;27;20202;-73
2023/09/29 05:13:52;;;;;;;5.60;3.33;;;;;;;15.37;100.00;98332.63;5136662;27;20241;-73
2023/09/29 05:16:19;;;;;;;4.50;3.13;;;;;;;15.51;100.00;98329.34;5136893;27;20199;-73
2023/09/29 05:18:46;;;;;;;4.10;3.57;;;;;;;15.47;100.00;98328.22;5136700;27;20311;-73
2023/09/29 05:21:12;;;;;;;5.43;3.90;;;;;;;15.51;100.00;98339.28;5137571;27;20202;-73
2023/09/29 05:23:39;;;;;;;5.93;3.73;;;;;;;15.54;100.00;98342.28;5137130;27;20568;-72
2023/09/29 05:26:07;;;;;;;6.23;3.13;;;;;;;15.64;100.00;98338.94;5137265;27;20234;-73
2023/09/29 05:28:37;;;;;;;3.50;3.20;;;;;;;15.60;100.00;98340.50;5137366;27;20226;-73
2023/09/29 05:31:04;;;;;;;6.17;3.90;;;;;;;15.63;100.00;98346.19;5137791;27;20211;-73
2023/09/29 05:33:31;;;;;;;4.97;3.30;;;;;;;15.64;100.00;98355.84;5137498;27;20202;-73
2023/09/29 05:35:58;;;;;;;6.53;4.27;;;;;;;15.64;100.00;98355.00;5136913;27;20285;-73
2023/09/29 05:38:25;;;;;;;5.20;3.83;;;;;;;15.64;100.00;98355.84;5136954;27;20282;-73
2023/09/29 05:40:52;;;;;;;4.03;3.40;;;;;;;15.74;100.00;98356.00;5137131;27;20198;-73
2023/09/29 05:43:19;;;;;;;4.00;3.40;;;;;;;15.72;100.00;98350.06;5136580;27;20553;-73
2023/09/29 05:45:46;;;;;;;5.17;3.50;;;;;;;15.70;100.00;98348.69;5136902;27;20223;-73
2023/09/29 05:48:13;;;;;;;4.87;3.37;;;;;;;15.75;100.00;98354.94;5136858;27;20225;-73
2023/09/29 05:50:39;;;;;;;6.33;3.70;;;;;;;15.81;100.00;98362.00;5136783;27;20661;-73
2023/09/29 05:53:06;;;;;;;7.93;3.77;;;;;;;15.80;100.00;98360.41;5137633;27;20204;-73
2023/09/29 05:55:32;;;;;;;5.10;3.50;;;;;;;15.84;100.00;98364.19;5136709;27;20198;-72
2023/09/29 05:57:59;;;;;;;4.50;3.37;;;;;;;15.90;100.00;98382.00;5136757;27;20218;-72
2023/09/29 06:00:26;;;;;;;4.97;3.53;;;;;;;15.91;100.00;98375.56;5136443;27;20209;-72
2023/09/29 06:02:53;;;;;;;5.20;3.17;;;;;;;15.96;100.00;98372.97;5136533;27;20210;-72
2023/09/29 06:05:20;;;;;;;4.50;3.83;;;;;;;16.05;100.00;98374.16;5136686;27;20222;-73
2023/09/29 06:07:47;;;;;;;7.03;3.87;;;;;;;16.12;100.00;98368.63;5136807;27;20219;-73
2023/09/29 06:10:13;;;;;;;5.13;3.43;;;;;;;16.15;100.00;98365.47;5136721;27;20209;-73
2023/09/29 06:12:40;;;;;;;6.97;3.50;;;;;;;16.19;100.00;98375.44;5136214;27;20205;-73
2023/09/29 06:15:07;;;;;;;7.83;4.03;;;;;;;16.22;100.00;98377.66;5136389;27;20210;-73
2023/09/29 06:17:34;;;;;;;6.00;4.23;;;;;;;16.24;100.00;98378.19;5135967;27;20223;-72
2023/09/29 06:20:00;;;;;;;5.90;4.10;;;;;;;16.21;100.00;98377.88;5136254;27;20234;-72
2023/09/29 06:22:26;;;;;;;9.37;4.10;;;;;;;16.23;100.00;98376.59;5136134;27;20229;-73
2023/09/29 06:24:53;;;;;;;5.57;3.57;;;;;;;16.30;100.00;98384.47;5136160;27;20222;-73
2023/09/29 06:27:19;;;;;;;4.60;3.77;;;;;;;16.42;100.00;98382.53;5136156;27;20203;-73
2023/09/29 06:29:49;;;;;;;6.97;3.93;;;;;;;16.40;100.00;98388.13;5136551;27;20267;-73
2023/09/29 06:32:16;;;;;;;8.67;4.30;;;;;;;16.38;100.00;98382.16;5135729;27;20210;-73
2023/09/29 06:34:43;;;;;;;7.23;4.40;;;;;;;16.46;100.00;98391.72;5135721;27;20661;-73
2023/09/29 06:37:09;;;;;;;6.73;4.33;;;;;;;16.45;100.00;98387.38;5136047;27;20198;-73
2023/09/29 06:39:36;;;;;;;5.47;3.77;;;;;;;16.49;100.00;98392.00;5135772;27;20614;-73
2023/09/29 06:42:04;;;;;;;6.70;4.10;;;;;;;16.58;100.00;98390.53;5135658;27;20572;-73
2023/09/29 06:44:32;;;;;;;6.90;4.00;;;;;;;16.57;100.00;98391.59;5136054;27;20227;-73
2023/09/29 06:46:59;;;;;;;5.57;3.50;;;;;;;16.67;100.00;98394.41;5135552;27;20218;-73
2023/09/29 06:49:25;;;;;;;5.90;3.70;;;;;;;16.67;100.00;98393.56;5135627;27;20216;-73
2023/09/29 06:51:51;;;;;;;7.57;3.97;;;;;;;16.71;100.00;98395.53;5135750;27;20280;-72
2023/09/29 06:54:18;;;;;;;5.87;3.53;;;;;;;16.72;100.00;98394.47;5135667;27;20195;-72
2023/09/29 06:56:46;;;;;;;4.90;3.40;;;;;;;16.76;100.00;98397.44;5135544;27;20637;-72
2023/09/29 06:59:12;;;;;;;8.03;3.70;;;;;;;16.76;100.00;98398.28;5135425;27;20279;-72
2023/09/29 07:01:40;;;;;;;7.67;3.70;;;;;;;16.79;100.00;98408.50;5135904;27;20205;-72
2023/09/29 07:04:06;;;;;;;7.17;3.90;;;;;;;16.81;100.00;98392.97;5135525;27;20205;-73
2023/09/29 07:06:33;;;;;;;6.77;3.20;;;;;;;16.84;100.00;98399.69;5135417;27;20225;-73
2023/09/29 07:08:59;;;;;;;7.03;4.17;;;;;;;16.89;100.00;98403.28;5135563;27;20227;-73
2023/09/29 07:11:25;;;;;;;8.77;3.67;;;;;;;16.92;100.00;98399.28;5135159;27;20649;-73
2023/09/29 07:13:52;;;;;;;6.13;3.97;;;;;;;16.98;100.00;98391.03;5135542;27;20281;-73
2023/09/29 07:16:19;;;;;;;7.27;3.90;;;;;;;17.07;100.00;98388.69;5135298;27;20202;-73
2023/09/29 07:18:45;;;;;;;7.43;4.00;;;;;;;17.18;100.00;98388.53;5135280;27;20318;-73
2023/09/29 07:21:12;;;;;;;6.77;3.57;;;;;;;17.25;100.00;98396.41;5135293;27;20203;-73
2023/09/29 07:23:38;;;;;;;6.67;3.93;;;;;;;17.28;100.00;98387.84;5135165;27;20603;-73
2023/09/29 07:26:05;;;;;;;5.90;3.67;;;;;;;17.32;100.00;98391.66;5134598;27;20669;-72
2023/09/29 07:28:33;;;;;;;6.17;3.60;;;;;;;17.42;100.00;98392.56;5135005;27;20219;-72
2023/09/29 07:30:59;;;;;;;6.87;3.43;;;;;;;17.48;100.00;98396.97;5134904;27;20210;-72
2023/09/29 07:33:26;;;;;;;5.13;3.57;;;;;;;17.46;100.00;98395.59;5135073;27;20198;-72
2023/09/29 07:35:52;;;;;;;7.47;3.40;;;;;;;17.44;100.00;98398.53;5134957;27;20194;-72
2023/09/29 07:38:18;;;;;;;6.27;3.50;;;;;;;17.78;100.00;98391.84;5134774;27;20219;-72
2023/09/29 07:40:46;;;;;;;5.20;3.33;;;;;;;17.78;100.00;98388.34;5134959;27;20206;-72
2023/09/29 07:43:12;;;;;;;6.70;3.63;;;;;;;17.67;100.00;98389.31;5134618;27;20305;-72
2023/09/29 07:45:39;;;;;;;4.33;3.30;;;;;;;17.71;100.00;98387.75;5134272;27;20233;-72
2023/09/29 07:48:07;;;;;;;6.17;3.60;;;;;;;17.63;100.00;98394.41;5134760;27;20278;-72
2023/09/29 07:50:33;;;;;;;6.30;4.03;;;;;;;17.70;100.00;98395.00;5134938;27;20198;-72
2023/09/29 07:53:03;;;;;;;6.13;3.90;;;;;;;17.83;100.00;98402.63;5134478;27;20563;-72
2023/09/29 07:55:29;;;;;;;7.23;3.83;;;;;;;18.05;100.00;98400.66;5134974;27;20198;-73
2023/09/29 07:57:56;;;;;;;5.57;3.87;;;;;;;18.14;100.00;98403.69;5134650;27;20240;-73
2023/09/29 08:00:22;;;;;;;5.03;4.23;;;;;;;18.22;100.00;98406.69;5134395;27;20741;-73
2023/09/29 08:02:49;;;;;;;9.50;3.93;;;;;;;18.44;100.00;98402.03;5134551;27;20206;-73
2023/09/29 08:05:15;;;;;;;6.30;3.93;;;;;;;18.46;100.00;98401.78;5134197;27;20701;-72
2023/09/29 08:07:42;;;;;;;9.43;4.20;;;;;;;18.49;100.00;98402.06;5134253;27;20240;-72
2023/09/29 08:10:10;;;;;;;5.33;3.70;;;;;;;18.58;100.00;98411.25;5134126;27;20621;-72
2023/09/29 08:12:37;;;;;;;6.27;3.80;;;;;;;18.63;100.00;98405.06;5134002;27;20665;-72
2023/09/29 08:15:05;;;;;;;7.33;3.80;;;;;;;18.67;100.00;98409.69;5134382;27;20203;-72
2023/09/29 08:17:32;;;;;;;5.40;3.53;;;;;;;18.81;100.00;98408.16;5134170;27;20380;-72
2023/09/29 08:19:58;;;;;;;7.27;3.97;;;;;;;18.82;100.00;98412.44;5134194;27;20205;-72
2023/09/29 08:22:25;;;;;;;8.37;4.10;;;;;;;18.96;100.00;98408.19;5134262;27;20198;-72
2023/09/29 08:24:51;;;;;;;7.70;3.60;;;;;;;18.94;100.00;98406.84;5134350;27;20218;-72
2023/09/29 08:27:18;;;;;;;5.13;3.73;;;;;;;19.28;100.00;98408.88;5134209;27;20228;-72
2023/09/29 08:29:44;;;;;;;6.13;3.83;;;;;;;19.39;99.06;98410.53;5134120;28;20202;-72
2023/09/29 08:32:11;;;;;;;8.43;4.30;;;;;;;19.54;96.35;98399.75;5133664;28;20565;-72
2023/09/29 08:34:39;;;;;;;6.77;4.20;;;;;;;19.58;97.46;98408.94;5133836;28;20665;-72
2023/09/29 08:37:05;;;;;;;7.77;4.40;;;;;;;19.41;96.51;98402.97;5133888;28;20375;-72
2023/09/29 08:39:31;;;;;;;4.90;4.03;;;;;;;19.45;96.92;98390.59;5133838;28;20562;-72
2023/09/29 08:42:05;;;;;;;10.57;4.40;;;;;;;19.39;98.54;98404.31;5134086;28;20565;-73
2023/09/29 08:44:33;;;;;;;7.77;3.63;;;;;;;19.43;98.58;98394.63;5133923;28;20191;-73
2023/09/29 08:47:01;;;;;;;7.30;4.70;;;;;;;19.40;98.40;98389.75;5133622;28;20209;-73
2023/09/29 08:49:27;;;;;;;7.40;4.33;;;;;;;19.39;99.21;98397.06;5133861;28;20700;-73
2023/09/29 08:51:56;;;;;;;5.73;4.47;;;;;;;19.48;99.81;98396.53;5134966;28;20203;-73
2023/09/29 08:54:25;;;;;;;8.87;4.60;;;;;;;19.67;97.56;98405.72;5134181;28;20199;-73
2023/09/29 08:56:51;;;;;;;6.07;3.93;;;;;;;19.85;96.04;98402.50;5133500;28;20205;-72
2023/09/29 08:59:18;;;;;;;8.07;4.57;;;;;;;20.13;94.40;98397.41;5133770;28;20233;-72
2023/09/29 09:01:46;;;;;;;7.70;4.60;;;;;;;20.16;94.75;98394.13;5134026;28;20202;-72
2023/09/29 09:04:12;;;;;;;12.17;4.30;;;;;;;20.45;92.10;98394.38;5134108;28;20198;-73
2023/09/29 09:06:40;;;;;;;8.03;4.30;;;;;;;20.50;91.02;98391.66;5133914;28;20230;-73
2023/09/29 09:09:08;;;;;;;7.53;4.30;;;;;;;20.93;88.98;98385.59;5133432;28;20227;-73
2023/09/29 09:11:42;;;;;;;7.87;4.77;;;;;;;21.14;88.54;98387.09;5133400;28;20198;-73
2023/09/29 09:14:10;;;;;;;8.37;4.30;;;;;;;21.36;86.76;98382.13;5133637;28;20195;-73
2023/09/29 09:16:40;;;;;;;9.77;4.47;;;;;;;21.53;86.32;98377.13;5133831;28;20199;-72
2023/09/29 09:19:14;;;;;;;8.13;4.33;;;;;;;21.72;85.66;98380.81;5133405;28;20231;-72
2023/09/29 09:21:42;;;;;;;11.77;4.73;;;;;;;22.00;81.73;98380.03;5133609;28;20302;-72
2023/09/29 09:24:23;;;;;;;7.13;4.33;;;;;;;22.31;82.10;98374.06;5133370;28;20199;-72
2023/09/29 09:26:50;;;;;;;8.25;4.28;;;;;;;22.66;78.16;98381.03;5133427;28;20310;-72
2023/09/29 09:29:18;;;;;;;9.70;4.35;;;;;;;22.88;77.70;98373.97;5133386;28;20223;-73
2023/09/29 09:31:50;;;;;;;8.27;4.70;;;;;;;22.71;77.32;98372.84;5133208;28;20264;-73
2023/09/29 09:34:17;;;;;;;5.68;3.75;;;;;;;22.83;77.78;98376.75;5135012;27;20186;-73
2023/09/29 09:36:52;;;;;;;6.88;4.18;;;;;;;22.61;79.87;98373.75;5137347;27;20194;-73
2023/09/29 09:39:25;;;;;;;6.47;4.47;;;;;;;22.93;76.23;98381.25;5136911;27;20308;-73
2023/09/29 09:41:56;;;;;;;6.13;3.90;;;;;;;22.89;79.82;98375.59;5137250;27;20183;-73
2023/09/29 09:44:25;;;;;;;7.70;3.75;;;;;;;23.13;75.88;98376.38;5136904;27;20655;-73
2023/09/29 09:47:00;;;;;;;8.63;3.92;;;;;;;23.06;75.63;98373.19;5136762;27;20709;-73
2023/09/29 09:49:36;;;;;;;6.15;3.63;;;;;;;22.99;76.45;98370.06;5136787;27;20190;-73
2023/09/29 09:52:06;;;;;;;6.03;4.10;;;;;;;23.06;76.16;98377.84;5137171;27;20186;-73
2023/09/29 09:54:39;;;;;;;5.25;3.58;;;;;;;22.91;76.81;98378.00;5137196;27;20202;-73
2023/09/29 09:57:11;;;;;;;6.45;3.85;;;;;;;22.96;79.40;98373.34;5137019;27;20214;-73
2023/09/29 09:59:39;;;;;;;6.38;4.00;;;;;;;23.03;79.08;98376.50;5136847;27;20187;-73
2023/09/29 10:02:07;;;;;;;6.88;3.92;;;;;;;23.32;76.15;98369.09;5137384;27;20281;-73
2023/09/29 10:04:38;;;;;;;7.07;3.72;;;;;;;23.16;73.99;98378.50;5120010;27;20209;-73
2023/09/29 10:07:05;;;;;;;8.05;3.95;;;;;;;23.03;74.25;98384.66;5136693;27;20664;-73
2023/09/29 10:09:49;;;;;;;7.35;4.13;;;;;;;22.97;74.96;98383.09;5136770;27;20202;-73
2023/09/29 10:12:27;;;;;;;9.55;3.85;;;;;;;23.28;73.92;98376.19;5136392;27;20562;-73
2023/09/29 10:14:55;;;;;;;4.35;3.63;;;;;;;23.07;77.75;98382.16;5136278;27;20206;-73
2023/09/29 10:17:22;;;;;;;7.45;4.20;;;;;;;23.20;75.47;98381.47;5136444;27;20683;-73
2023/09/29 10:19:53;;;;;;;6.82;4.10;;;;;;;23.18;77.58;98378.19;5137100;27;20203;-73
2023/09/29 10:22:24;;;;;;;3.65;2.50;;;;;;;23.45;69.44;98379.22;5136348;27;20191;-73
2023/09/29 10:24:56;;;;;;;2.40;2.20;;;;;;;24.04;65.63;98370.41;5136389;27;20209;-73
2023/09/29 10:27:32;;;;;;;5.40;2.38;;;;;;;24.89;60.79;98377.00;5136429;27;20226;-73
2023/09/29 10:30:17;;;;;;;3.47;2.13;;;;;;;24.97;58.64;98376.28;5136373;27;20198;-73
2023/09/29 10:32:48;;;;;;;3.45;2.42;;;;;;;25.12;58.00;98370.53;5136019;27;20206;-73
2023/09/29 10:35:19;;;;;;;2.58;2.35;;;;;;;25.28;58.30;98369.91;5136342;27;20197;-73
2023/09/29 10:37:49;;;;;;;4.50;2.55;;;;;;;25.38;57.36;98368.91;5136277;27;20273;-73
2023/09/29 10:40:31;;;;;;;3.42;2.60;;;;;;;25.24;56.70;98362.66;5136601;27;20209;-74
2023/09/29 10:43:02;;;;;;;3.47;2.63;;;;;;;25.40;57.57;98355.78;5136425;27;20274;-74
2023/09/29 10:45:35;;;;;;;2.83;2.47;;;;;;;25.45;58.09;98358.38;5134505;27;20295;-74
2023/09/29 10:48:05;;;;;;;3.25;2.40;;;;;;;25.51;56.46;98355.22;5135610;27;20223;-74
2023/09/29 10:50:38;;;;;;;3.15;2.72;;;;;;;25.57;56.77;98350.47;5135676;27;20203;-74
2023/09/29 10:53:05;;;;;;;3.38;2.65;;;;;;;25.50;56.15;98347.38;5135972;27;20193;-73
2023/09/29 10:55:32;;;;;;;4.03;2.20;;;;;;;25.57;57.47;98345.03;5135471;27;20206;-73
2023/09/29 10:57:59;;;;;;;2.75;2.55;;;;;;;25.72;56.35;98339.22;5135304;27;20222;-73
2023/09/29 11:00:25;;;;;;;4.20;2.58;;;;;;;26.10;56.15;98346.72;5116992;27;20274;-73
2023/09/29 11:02:52;;;;;;;3.03;2.40;;;;;;;25.92;56.63;98347.72;5135682;27;20207;-73
2023/09/29 11:05:19;;;;;;;4.07;2.97;;;;;;;25.99;58.66;98339.09;5135665;27;20240;-73
2023/09/29 11:07:52;;;;;;;3.58;2.80;;;;;;;26.01;55.63;98339.63;5135305;27;20226;-74
2023/09/29 11:10:20;;;;;;;3.83;2.40;;;;;;;26.18;56.47;98339.69;5135343;27;20539;-73
2023/09/29 11:12:50;;;;;;;3.63;2.78;;;;;;;26.12;56.95;98336.31;5135354;27;20238;-73
2023/09/29 11:15:19;;;;;;;3.72;2.75;;;;;;;26.02;57.29;98333.88;5135575;27;20198;-73
2023/09/29 11:17:50;;;;;;;4.28;2.80;;;;;;;26.15;57.55;98327.50;5135339;27;20655;-72
2023/09/29 11:20:26;;;;;;;3.22;2.65;;;;;;;26.17;56.27;98327.19;5135068;27;20247;-72
2023/09/29 11:23:19;;;;;;;3.05;2.80;;;;;;;26.14;56.87;98322.38;5135282;27;20190;-72
2023/09/29 11:25:58;;;;;;;5.03;3.10;;;;;;;26.32;57.34;98324.88;5130327;27;20233;-72
2023/09/29 11:28:26;;;;;;;3.42;2.70;;;;;;;26.31;57.78;98322.44;5134813;27;20222;-72
2023/09/29 11:30:54;;;;;;;4.78;2.72;;;;;;;26.12;58.17;98319.16;5134889;27;20283;-72